sensor_id;sensor_type;location;lat;lon;timestamp;temperature;humidity
40964;DHT22;26693;51.168;4.138;2022-07-18T00:00:20;22.30;91.40
40964;DHT22;26693;51.168;4.138;2022-07-18T00:01:20;22.30;91.50
40964;DHT22;26693;51.168;4.138;2022-07-18T00:02:21;22.20;91.40
40964;DHT22;26693;51.168;4.138;2022-07-18T00:03:21;22.10;91.40
40964;DHT22;26693;51.168;4.138;2022-07-18T00:04:22;22.20;91.40
40964;DHT22;26693;51.168;4.138;2022-07-18T00:05:23;22.20;91.40
40964;DHT22;26693;51.168;4.138;2022-07-18T00:06:24;22.10;91.40
40964;DHT22;26693;51.168;4.138;2022-07-18T00:07:24;22.20;91.40
40964;DHT22;26693;51.168;4.138;2022-07-18T00:08:25;22.30;91.30
40964;DHT22;26693;51.168;4.138;2022-07-18T00:09:25;22.20;91.30
40964;DHT22;26693;51.168;4.138;2022-07-18T00:10:26;22.30;91.30
40964;DHT22;26693;51.168;4.138;2022-07-18T00:11:26;22.20;91.30
40964;DHT22;26693;51.168;4.138;2022-07-18T00:12:27;22.30;91.40
40964;DHT22;26693;51.168;4.138;2022-07-18T00:13:27;22.20;91.30
40964;DHT22;26693;51.168;4.138;2022-07-18T00:14:28;22.20;91.40
40964;DHT22;26693;51.168;4.138;2022-07-18T00:15:28;22.10;91.40
40964;DHT22;26693;51.168;4.138;2022-07-18T00:16:29;22.10;91.40
40964;DHT22;26693;51.168;4.138;2022-07-18T00:17:29;22.00;91.40
40964;DHT22;26693;51.168;4.138;2022-07-18T00:18:30;22.00;91.40
40964;DHT22;26693;51.168;4.138;2022-07-18T00:19:31;22.10;91.30
40964;DHT22;26693;51.168;4.138;2022-07-18T00:20:31;22.10;91.30
40964;DHT22;26693;51.168;4.138;2022-07-18T00:21:33;22.00;91.30
40964;DHT22;26693;51.168;4.138;2022-07-18T00:22:33;22.10;91.30
40964;DHT22;26693;51.168;4.138;2022-07-18T00:23:34;22.00;91.30
40964;DHT22;26693;51.168;4.138;2022-07-18T00:24:34;22.00;91.30
40964;DHT22;26693;51.168;4.138;2022-07-18T00:25:37;22.00;91.20
40964;DHT22;26693;51.168;4.138;2022-07-18T00:26:38;22.00;91.20
40964;DHT22;26693;51.168;4.138;2022-07-18T00:27:39;22.00;91.20
40964;DHT22;26693;51.168;4.138;2022-07-18T00:28:39;22.00;91.20
40964;DHT22;26693;51.168;4.138;2022-07-18T00:29:40;22.00;91.20
40964;DHT22;26693;51.168;4.138;2022-07-18T00:30:41;22.00;91.20
40964;DHT22;26693;51.168;4.138;2022-07-18T00:31:41;22.00;91.00
40964;DHT22;26693;51.168;4.138;2022-07-18T00:32:42;22.00;91.00
40964;DHT22;26693;51.168;4.138;2022-07-18T00:33:42;22.00;91.10
40964;DHT22;26693;51.168;4.138;2022-07-18T00:34:43;22.00;91.10
40964;DHT22;26693;51.168;4.138;2022-07-18T00:35:44;21.90;91.10
40964;DHT22;26693;51.168;4.138;2022-07-18T00:36:44;22.00;91.10
40964;DHT22;26693;51.168;4.138;2022-07-18T00:37:45;21.90;91.10
40964;DHT22;26693;51.168;4.138;2022-07-18T00:38:45;21.90;91.10
40964;DHT22;26693;51.168;4.138;2022-07-18T00:39:46;21.90;91.20
40964;DHT22;26693;51.168;4.138;2022-07-18T00:40:46;21.90;91.20
40964;DHT22;26693;51.168;4.138;2022-07-18T00:41:47;21.90;91.20
40964;DHT22;26693;51.168;4.138;2022-07-18T00:42:48;21.90;91.20
40964;DHT22;26693;51.168;4.138;2022-07-18T00:43:49;21.90;91.30
40964;DHT22;26693;51.168;4.138;2022-07-18T00:44:53;21.90;91.30
40964;DHT22;26693;51.168;4.138;2022-07-18T00:45:54;21.90;91.20
40964;DHT22;26693;51.168;4.138;2022-07-18T00:46:55;21.90;91.20
40964;DHT22;26693;51.168;4.138;2022-07-18T00:47:56;21.90;91.20
40964;DHT22;26693;51.168;4.138;2022-07-18T00:48:57;21.90;91.20
40964;DHT22;26693;51.168;4.138;2022-07-18T00:49:57;21.80;91.20
40964;DHT22;26693;51.168;4.138;2022-07-18T00:50:58;21.80;91.30
40964;DHT22;26693;51.168;4.138;2022-07-18T00:51:58;21.70;91.30
40964;DHT22;26693;51.168;4.138;2022-07-18T00:52:59;21.80;91.30
40964;DHT22;26693;51.168;4.138;2022-07-18T00:53:59;21.70;91.30
40964;DHT22;26693;51.168;4.138;2022-07-18T00:55:00;21.70;91.30
40964;DHT22;26693;51.168;4.138;2022-07-18T00:56:02;21.70;91.30
40964;DHT22;26693;51.168;4.138;2022-07-18T00:57:03;21.80;91.30
40964;DHT22;26693;51.168;4.138;2022-07-18T00:58:03;21.70;91.20
40964;DHT22;26693;51.168;4.138;2022-07-18T00:59:04;21.70;91.30
40964;DHT22;26693;51.168;4.138;2022-07-18T01:00:06;21.70;91.30
40964;DHT22;26693;51.168;4.138;2022-07-18T01:01:25;21.70;91.20
40964;DHT22;26693;51.168;4.138;2022-07-18T01:02:46;21.60;91.30
40964;DHT22;26693;51.168;4.138;2022-07-18T01:03:47;21.60;91.30
40964;DHT22;26693;51.168;4.138;2022-07-18T01:04:47;21.50;91.40
40964;DHT22;26693;51.168;4.138;2022-07-18T01:05:48;21.50;91.40
40964;DHT22;26693;51.168;4.138;2022-07-18T01:06:49;21.40;91.40
40964;DHT22;26693;51.168;4.138;2022-07-18T01:07:50;21.40;91.40
40964;DHT22;26693;51.168;4.138;2022-07-18T01:08:51;21.40;91.50
40964;DHT22;26693;51.168;4.138;2022-07-18T01:09:52;21.40;91.50
40964;DHT22;26693;51.168;4.138;2022-07-18T01:10:53;21.50;91.50
40964;DHT22;26693;51.168;4.138;2022-07-18T01:11:54;21.40;91.40
40964;DHT22;26693;51.168;4.138;2022-07-18T01:12:55;21.40;91.40
40964;DHT22;26693;51.168;4.138;2022-07-18T01:13:55;21.40;91.40
40964;DHT22;26693;51.168;4.138;2022-07-18T01:14:56;21.40;91.50
40964;DHT22;26693;51.168;4.138;2022-07-18T01:15:58;21.30;91.60
40964;DHT22;26693;51.168;4.138;2022-07-18T01:16:58;21.30;91.50
40964;DHT22;26693;51.168;4.138;2022-07-18T01:17:59;21.30;91.50
40964;DHT22;26693;51.168;4.138;2022-07-18T01:18:59;21.40;91.50
40964;DHT22;26693;51.168;4.138;2022-07-18T01:20:00;21.40;91.50
40964;DHT22;26693;51.168;4.138;2022-07-18T01:21:01;21.30;91.40
40964;DHT22;26693;51.168;4.138;2022-07-18T01:22:01;21.30;91.40
40964;DHT22;26693;51.168;4.138;2022-07-18T01:23:02;21.30;91.40
40964;DHT22;26693;51.168;4.138;2022-07-18T01:24:02;21.30;91.40
40964;DHT22;26693;51.168;4.138;2022-07-18T01:25:03;21.30;91.40
40964;DHT22;26693;51.168;4.138;2022-07-18T01:26:04;21.30;91.40
40964;DHT22;26693;51.168;4.138;2022-07-18T01:27:05;21.20;91.40
40964;DHT22;26693;51.168;4.138;2022-07-18T01:28:05;21.20;91.40
40964;DHT22;26693;51.168;4.138;2022-07-18T01:29:06;21.10;91.50
40964;DHT22;26693;51.168;4.138;2022-07-18T01:30:06;21.10;91.50
40964;DHT22;26693;51.168;4.138;2022-07-18T01:31:07;21.10;91.50
40964;DHT22;26693;51.168;4.138;2022-07-18T01:32:08;21.10;91.40
40964;DHT22;26693;51.168;4.138;2022-07-18T01:33:09;21.10;91.40
40964;DHT22;26693;51.168;4.138;2022-07-18T01:34:09;21.10;91.40
40964;DHT22;26693;51.168;4.138;2022-07-18T01:35:10;21.20;91.40
40964;DHT22;26693;51.168;4.138;2022-07-18T01:36:11;21.20;91.30
40964;DHT22;26693;51.168;4.138;2022-07-18T01:37:11;21.20;91.30
40964;DHT22;26693;51.168;4.138;2022-07-18T01:38:12;21.20;91.20
40964;DHT22;26693;51.168;4.138;2022-07-18T01:39:13;21.20;91.10
40964;DHT22;26693;51.168;4.138;2022-07-18T01:40:13;21.20;91.10
40964;DHT22;26693;51.168;4.138;2022-07-18T01:41:14;21.20;91.00
40964;DHT22;26693;51.168;4.138;2022-07-18T01:42:14;21.20;90.90
40964;DHT22;26693;51.168;4.138;2022-07-18T01:43:15;21.20;91.00
40964;DHT22;26693;51.168;4.138;2022-07-18T01:44:15;21.30;90.90
40964;DHT22;26693;51.168;4.138;2022-07-18T01:45:16;21.30;90.90
40964;DHT22;26693;51.168;4.138;2022-07-18T01:46:17;21.30;90.70
40964;DHT22;26693;51.168;4.138;2022-07-18T01:47:17;21.40;90.70
40964;DHT22;26693;51.168;4.138;2022-07-18T01:48:18;21.40;90.60
40964;DHT22;26693;51.168;4.138;2022-07-18T01:49:19;21.50;90.50
40964;DHT22;26693;51.168;4.138;2022-07-18T01:50:20;21.50;90.40
40964;DHT22;26693;51.168;4.138;2022-07-18T01:51:21;21.40;90.50
40964;DHT22;26693;51.168;4.138;2022-07-18T01:52:22;21.40;90.50
40964;DHT22;26693;51.168;4.138;2022-07-18T01:53:22;21.40;90.60
40964;DHT22;26693;51.168;4.138;2022-07-18T01:54:28;21.30;90.60
40964;DHT22;26693;51.168;4.138;2022-07-18T01:55:29;21.30;90.60
40964;DHT22;26693;51.168;4.138;2022-07-18T01:56:29;21.30;90.60
40964;DHT22;26693;51.168;4.138;2022-07-18T01:57:30;21.30;90.70
40964;DHT22;26693;51.168;4.138;2022-07-18T01:58:30;21.30;90.80
40964;DHT22;26693;51.168;4.138;2022-07-18T01:59:31;21.50;90.70
40964;DHT22;26693;51.168;4.138;2022-07-18T02:00:31;21.80;90.50
40964;DHT22;26693;51.168;4.138;2022-07-18T02:01:32;22.00;90.20
40964;DHT22;26693;51.168;4.138;2022-07-18T02:02:33;22.20;90.10
40964;DHT22;26693;51.168;4.138;2022-07-18T02:03:33;22.20;90.00
40964;DHT22;26693;51.168;4.138;2022-07-18T02:04:34;22.10;90.00
40964;DHT22;26693;51.168;4.138;2022-07-18T02:05:53;21.90;90.20
40964;DHT22;26693;51.168;4.138;2022-07-18T02:06:53;22.00;90.20
40964;DHT22;26693;51.168;4.138;2022-07-18T02:07:54;21.80;90.30
40964;DHT22;26693;51.168;4.138;2022-07-18T02:08:54;21.80;90.30
40964;DHT22;26693;51.168;4.138;2022-07-18T02:09:55;21.80;90.40
40964;DHT22;26693;51.168;4.138;2022-07-18T02:10:56;21.80;90.30
40964;DHT22;26693;51.168;4.138;2022-07-18T02:11:57;21.80;90.30
40964;DHT22;26693;51.168;4.138;2022-07-18T02:12:58;21.60;90.40
40964;DHT22;26693;51.168;4.138;2022-07-18T02:13:58;21.60;90.50
40964;DHT22;26693;51.168;4.138;2022-07-18T02:14:59;21.50;90.60
40964;DHT22;26693;51.168;4.138;2022-07-18T02:15:59;21.60;90.60
40964;DHT22;26693;51.168;4.138;2022-07-18T02:17:01;21.60;90.90
40964;DHT22;26693;51.168;4.138;2022-07-18T02:18:01;21.60;90.40
40964;DHT22;26693;51.168;4.138;2022-07-18T02:19:02;21.50;90.60
40964;DHT22;26693;51.168;4.138;2022-07-18T02:20:03;21.60;90.50
40964;DHT22;26693;51.168;4.138;2022-07-18T02:21:04;21.80;90.50
40964;DHT22;26693;51.168;4.138;2022-07-18T02:22:05;22.00;90.30
40964;DHT22;26693;51.168;4.138;2022-07-18T02:23:05;21.80;90.20
40964;DHT22;26693;51.168;4.138;2022-07-18T02:24:08;21.50;90.30
40964;DHT22;26693;51.168;4.138;2022-07-18T02:25:09;21.40;90.50
40964;DHT22;26693;51.168;4.138;2022-07-18T02:26:10;21.50;90.60
40964;DHT22;26693;51.168;4.138;2022-07-18T02:27:11;21.50;90.50
40964;DHT22;26693;51.168;4.138;2022-07-18T02:28:11;21.60;90.60
40964;DHT22;26693;51.168;4.138;2022-07-18T02:29:11;21.70;90.50
40964;DHT22;26693;51.168;4.138;2022-07-18T02:30:12;21.70;90.60
40964;DHT22;26693;51.168;4.138;2022-07-18T02:31:13;21.40;90.40
40964;DHT22;26693;51.168;4.138;2022-07-18T02:32:14;21.30;90.60
40964;DHT22;26693;51.168;4.138;2022-07-18T02:33:15;21.20;90.70
40964;DHT22;26693;51.168;4.138;2022-07-18T02:34:15;21.10;90.90
40964;DHT22;26693;51.168;4.138;2022-07-18T02:35:16;21.20;90.90
40964;DHT22;26693;51.168;4.138;2022-07-18T02:36:16;21.00;91.00
40964;DHT22;26693;51.168;4.138;2022-07-18T02:37:17;20.90;91.10
40964;DHT22;26693;51.168;4.138;2022-07-18T02:38:18;20.80;91.20
40964;DHT22;26693;51.168;4.138;2022-07-18T02:39:18;20.80;91.40
40964;DHT22;26693;51.168;4.138;2022-07-18T02:40:19;20.70;91.40
40964;DHT22;26693;51.168;4.138;2022-07-18T02:41:20;20.70;91.50
40964;DHT22;26693;51.168;4.138;2022-07-18T02:42:20;20.60;91.50
40964;DHT22;26693;51.168;4.138;2022-07-18T02:43:21;20.60;91.60
40964;DHT22;26693;51.168;4.138;2022-07-18T02:44:21;20.60;91.60
40964;DHT22;26693;51.168;4.138;2022-07-18T02:45:22;20.60;91.60
40964;DHT22;26693;51.168;4.138;2022-07-18T02:46:23;20.60;91.60
40964;DHT22;26693;51.168;4.138;2022-07-18T02:47:23;20.50;91.70
40964;DHT22;26693;51.168;4.138;2022-07-18T02:48:23;20.50;91.70
40964;DHT22;26693;51.168;4.138;2022-07-18T02:49:24;20.60;91.60
40964;DHT22;26693;51.168;4.138;2022-07-18T02:50:27;20.60;91.60
40964;DHT22;26693;51.168;4.138;2022-07-18T02:51:28;20.60;91.60
40964;DHT22;26693;51.168;4.138;2022-07-18T02:52:29;20.60;91.60
40964;DHT22;26693;51.168;4.138;2022-07-18T02:53:29;20.50;91.60
40964;DHT22;26693;51.168;4.138;2022-07-18T02:54:31;20.60;91.50
40964;DHT22;26693;51.168;4.138;2022-07-18T02:55:32;20.50;91.60
40964;DHT22;26693;51.168;4.138;2022-07-18T02:56:32;20.60;91.60
40964;DHT22;26693;51.168;4.138;2022-07-18T02:57:33;20.50;91.50
40964;DHT22;26693;51.168;4.138;2022-07-18T02:58:34;20.50;91.50
40964;DHT22;26693;51.168;4.138;2022-07-18T02:59:34;20.50;91.50
40964;DHT22;26693;51.168;4.138;2022-07-18T03:00:35;20.50;91.60
40964;DHT22;26693;51.168;4.138;2022-07-18T03:01:35;20.50;91.60
40964;DHT22;26693;51.168;4.138;2022-07-18T03:02:36;20.50;91.50
40964;DHT22;26693;51.168;4.138;2022-07-18T03:03:37;20.60;91.50
40964;DHT22;26693;51.168;4.138;2022-07-18T03:04:37;20.60;91.50
40964;DHT22;26693;51.168;4.138;2022-07-18T03:05:37;20.60;91.40
40964;DHT22;26693;51.168;4.138;2022-07-18T03:06:38;20.60;91.40
40964;DHT22;26693;51.168;4.138;2022-07-18T03:07:39;20.50;91.40
40964;DHT22;26693;51.168;4.138;2022-07-18T03:08:39;20.50;91.40
40964;DHT22;26693;51.168;4.138;2022-07-18T03:09:40;20.50;91.40
40964;DHT22;26693;51.168;4.138;2022-07-18T03:10:40;20.50;91.40
40964;DHT22;26693;51.168;4.138;2022-07-18T03:11:41;20.50;91.50
40964;DHT22;26693;51.168;4.138;2022-07-18T03:12:41;20.40;91.40
40964;DHT22;26693;51.168;4.138;2022-07-18T03:13:42;20.40;91.40
40964;DHT22;26693;51.168;4.138;2022-07-18T03:14:43;20.40;91.40
40964;DHT22;26693;51.168;4.138;2022-07-18T03:15:43;20.40;91.40
40964;DHT22;26693;51.168;4.138;2022-07-18T03:16:44;20.40;91.30
40964;DHT22;26693;51.168;4.138;2022-07-18T03:17:44;20.40;91.30
40964;DHT22;26693;51.168;4.138;2022-07-18T03:18:45;20.50;91.30
40964;DHT22;26693;51.168;4.138;2022-07-18T03:19:45;20.40;91.40
40964;DHT22;26693;51.168;4.138;2022-07-18T03:20:46;20.30;91.40
40964;DHT22;26693;51.168;4.138;2022-07-18T03:21:47;20.30;91.40
40964;DHT22;26693;51.168;4.138;2022-07-18T03:22:47;20.20;91.50
40964;DHT22;26693;51.168;4.138;2022-07-18T03:23:48;20.30;91.50
40964;DHT22;26693;51.168;4.138;2022-07-18T03:24:48;20.30;91.50
40964;DHT22;26693;51.168;4.138;2022-07-18T03:25:49;20.30;91.40
40964;DHT22;26693;51.168;4.138;2022-07-18T03:26:49;20.30;91.40
40964;DHT22;26693;51.168;4.138;2022-07-18T03:27:50;20.30;91.50
40964;DHT22;26693;51.168;4.138;2022-07-18T03:28:51;20.20;91.50
40964;DHT22;26693;51.168;4.138;2022-07-18T03:29:51;20.20;91.60
40964;DHT22;26693;51.168;4.138;2022-07-18T03:30:52;20.20;91.60
40964;DHT22;26693;51.168;4.138;2022-07-18T03:31:52;20.20;91.60
40964;DHT22;26693;51.168;4.138;2022-07-18T03:32:53;20.20;91.60
40964;DHT22;26693;51.168;4.138;2022-07-18T03:33:53;20.20;91.60
40964;DHT22;26693;51.168;4.138;2022-07-18T03:34:54;20.20;91.70
40964;DHT22;26693;51.168;4.138;2022-07-18T03:35:54;20.20;91.70
40964;DHT22;26693;51.168;4.138;2022-07-18T03:36:55;20.20;91.70
40964;DHT22;26693;51.168;4.138;2022-07-18T03:37:55;20.10;91.80
40964;DHT22;26693;51.168;4.138;2022-07-18T03:38:56;20.10;91.80
40964;DHT22;26693;51.168;4.138;2022-07-18T03:39:56;20.00;91.90
40964;DHT22;26693;51.168;4.138;2022-07-18T03:40:57;20.10;92.20
40964;DHT22;26693;51.168;4.138;2022-07-18T03:41:57;20.10;91.90
40964;DHT22;26693;51.168;4.138;2022-07-18T03:42:58;20.00;91.80
40964;DHT22;26693;51.168;4.138;2022-07-18T03:43:58;20.10;91.90
40964;DHT22;26693;51.168;4.138;2022-07-18T03:44:59;20.10;91.90
40964;DHT22;26693;51.168;4.138;2022-07-18T03:46:00;20.10;91.90
40964;DHT22;26693;51.168;4.138;2022-07-18T03:47:00;20.10;92.00
40964;DHT22;26693;51.168;4.138;2022-07-18T03:48:01;20.00;92.00
40964;DHT22;26693;51.168;4.138;2022-07-18T03:49:01;19.90;92.10
40964;DHT22;26693;51.168;4.138;2022-07-18T03:50:02;19.90;92.20
40964;DHT22;26693;51.168;4.138;2022-07-18T03:51:02;19.90;92.20
40964;DHT22;26693;51.168;4.138;2022-07-18T03:52:03;20.00;92.30
40964;DHT22;26693;51.168;4.138;2022-07-18T03:53:03;19.90;92.30
40964;DHT22;26693;51.168;4.138;2022-07-18T03:54:04;19.90;92.30
40964;DHT22;26693;51.168;4.138;2022-07-18T03:55:05;19.80;92.50
40964;DHT22;26693;51.168;4.138;2022-07-18T03:56:05;19.80;92.50
40964;DHT22;26693;51.168;4.138;2022-07-18T03:57:06;19.90;92.50
40964;DHT22;26693;51.168;4.138;2022-07-18T03:58:07;19.80;92.60
40964;DHT22;26693;51.168;4.138;2022-07-18T03:59:07;19.70;92.70
40964;DHT22;26693;51.168;4.138;2022-07-18T04:00:08;19.60;92.80
40964;DHT22;26693;51.168;4.138;2022-07-18T04:01:11;19.60;92.90
40964;DHT22;26693;51.168;4.138;2022-07-18T04:02:12;19.60;92.90
40964;DHT22;26693;51.168;4.138;2022-07-18T04:03:12;19.60;92.90
40964;DHT22;26693;51.168;4.138;2022-07-18T04:04:13;19.70;93.00
40964;DHT22;26693;51.168;4.138;2022-07-18T04:05:14;19.60;93.00
40964;DHT22;26693;51.168;4.138;2022-07-18T04:06:14;19.60;93.00
40964;DHT22;26693;51.168;4.138;2022-07-18T04:07:15;19.60;93.10
40964;DHT22;26693;51.168;4.138;2022-07-18T04:08:16;19.70;93.10
40964;DHT22;26693;51.168;4.138;2022-07-18T04:09:16;19.70;93.10
40964;DHT22;26693;51.168;4.138;2022-07-18T04:10:17;19.60;93.10
40964;DHT22;26693;51.168;4.138;2022-07-18T04:11:18;19.60;93.20
40964;DHT22;26693;51.168;4.138;2022-07-18T04:12:24;19.60;93.10
40964;DHT22;26693;51.168;4.138;2022-07-18T04:13:24;19.60;93.10
40964;DHT22;26693;51.168;4.138;2022-07-18T04:14:25;19.60;93.20
40964;DHT22;26693;51.168;4.138;2022-07-18T04:15:25;19.60;93.20
40964;DHT22;26693;51.168;4.138;2022-07-18T04:16:26;19.60;93.20
40964;DHT22;26693;51.168;4.138;2022-07-18T04:17:26;19.60;93.20
40964;DHT22;26693;51.168;4.138;2022-07-18T04:18:27;19.60;93.20
40964;DHT22;26693;51.168;4.138;2022-07-18T04:19:27;19.60;93.30
40964;DHT22;26693;51.168;4.138;2022-07-18T04:20:28;19.50;93.30
40964;DHT22;26693;51.168;4.138;2022-07-18T04:21:28;19.50;93.40
40964;DHT22;26693;51.168;4.138;2022-07-18T04:22:29;19.50;93.50
40964;DHT22;26693;51.168;4.138;2022-07-18T04:23:29;19.40;93.50
40964;DHT22;26693;51.168;4.138;2022-07-18T04:24:30;19.40;93.60
40964;DHT22;26693;51.168;4.138;2022-07-18T04:25:37;19.40;93.70
40964;DHT22;26693;51.168;4.138;2022-07-18T04:26:38;19.30;93.80
40964;DHT22;26693;51.168;4.138;2022-07-18T04:27:39;19.40;93.80
40964;DHT22;26693;51.168;4.138;2022-07-18T04:28:39;19.30;93.90
40964;DHT22;26693;51.168;4.138;2022-07-18T04:29:40;19.30;94.10
40964;DHT22;26693;51.168;4.138;2022-07-18T04:30:43;19.30;93.80
40964;DHT22;26693;51.168;4.138;2022-07-18T04:31:44;19.30;93.90
40964;DHT22;26693;51.168;4.138;2022-07-18T04:32:44;19.40;93.90
40964;DHT22;26693;51.168;4.138;2022-07-18T04:33:45;19.40;93.80
40964;DHT22;26693;51.168;4.138;2022-07-18T04:34:45;19.40;93.80
40964;DHT22;26693;51.168;4.138;2022-07-18T04:35:46;19.40;93.80
40964;DHT22;26693;51.168;4.138;2022-07-18T04:36:47;19.40;93.80
40964;DHT22;26693;51.168;4.138;2022-07-18T04:37:48;19.40;93.80
40964;DHT22;26693;51.168;4.138;2022-07-18T04:38:49;19.40;93.80
40964;DHT22;26693;51.168;4.138;2022-07-18T04:39:49;19.40;93.80
40964;DHT22;26693;51.168;4.138;2022-07-18T04:40:50;19.40;93.90
40964;DHT22;26693;51.168;4.138;2022-07-18T04:41:50;19.40;93.80
40964;DHT22;26693;51.168;4.138;2022-07-18T04:42:51;19.40;93.80
40964;DHT22;26693;51.168;4.138;2022-07-18T04:43:51;19.50;93.80
40964;DHT22;26693;51.168;4.138;2022-07-18T04:44:52;19.50;93.70
40964;DHT22;26693;51.168;4.138;2022-07-18T04:45:53;19.60;93.70
40964;DHT22;26693;51.168;4.138;2022-07-18T04:46:53;19.60;93.60
40964;DHT22;26693;51.168;4.138;2022-07-18T04:47:54;19.70;93.50
40964;DHT22;26693;51.168;4.138;2022-07-18T04:48:55;19.70;93.40
40964;DHT22;26693;51.168;4.138;2022-07-18T04:49:56;19.70;93.30
40964;DHT22;26693;51.168;4.138;2022-07-18T04:50:56;19.80;93.30
40964;DHT22;26693;51.168;4.138;2022-07-18T04:51:57;19.80;93.30
40964;DHT22;26693;51.168;4.138;2022-07-18T04:52:57;19.80;93.30
40964;DHT22;26693;51.168;4.138;2022-07-18T04:53:58;19.90;93.30
40964;DHT22;26693;51.168;4.138;2022-07-18T04:54:58;19.90;93.20
40964;DHT22;26693;51.168;4.138;2022-07-18T04:55:59;19.90;93.30
40964;DHT22;26693;51.168;4.138;2022-07-18T04:56:59;19.90;93.30
40964;DHT22;26693;51.168;4.138;2022-07-18T04:58:00;19.90;93.30
40964;DHT22;26693;51.168;4.138;2022-07-18T04:59:00;19.90;93.30
40964;DHT22;26693;51.168;4.138;2022-07-18T05:00:05;20.00;93.30
40964;DHT22;26693;51.168;4.138;2022-07-18T05:01:06;19.90;93.30
40964;DHT22;26693;51.168;4.138;2022-07-18T05:02:07;20.00;93.30
40964;DHT22;26693;51.168;4.138;2022-07-18T05:03:07;20.00;93.30
40964;DHT22;26693;51.168;4.138;2022-07-18T05:04:08;20.00;93.30
40964;DHT22;26693;51.168;4.138;2022-07-18T05:05:09;20.00;93.20
40964;DHT22;26693;51.168;4.138;2022-07-18T05:06:10;20.10;93.20
40964;DHT22;26693;51.168;4.138;2022-07-18T05:07:10;20.00;93.30
40964;DHT22;26693;51.168;4.138;2022-07-18T05:08:11;20.10;93.30
40964;DHT22;26693;51.168;4.138;2022-07-18T05:09:12;20.10;93.30
40964;DHT22;26693;51.168;4.138;2022-07-18T05:10:13;20.10;93.20
40964;DHT22;26693;51.168;4.138;2022-07-18T05:11:14;20.10;93.20
40964;DHT22;26693;51.168;4.138;2022-07-18T05:12:14;20.20;93.20
40964;DHT22;26693;51.168;4.138;2022-07-18T05:13:15;20.20;93.20
40964;DHT22;26693;51.168;4.138;2022-07-18T05:14:15;20.20;93.20
40964;DHT22;26693;51.168;4.138;2022-07-18T05:15:16;20.20;93.20
40964;DHT22;26693;51.168;4.138;2022-07-18T05:16:18;20.30;93.20
40964;DHT22;26693;51.168;4.138;2022-07-18T05:17:18;20.40;93.00
40964;DHT22;26693;51.168;4.138;2022-07-18T05:18:19;20.50;93.00
40964;DHT22;26693;51.168;4.138;2022-07-18T05:19:19;20.50;93.00
40964;DHT22;26693;51.168;4.138;2022-07-18T05:20:20;20.40;93.00
40964;DHT22;26693;51.168;4.138;2022-07-18T05:21:21;20.30;93.00
40964;DHT22;26693;51.168;4.138;2022-07-18T05:22:22;20.30;93.00
40964;DHT22;26693;51.168;4.138;2022-07-18T05:23:22;20.30;93.10
40964;DHT22;26693;51.168;4.138;2022-07-18T05:24:24;20.40;93.10
40964;DHT22;26693;51.168;4.138;2022-07-18T05:25:25;20.50;93.00
40964;DHT22;26693;51.168;4.138;2022-07-18T05:26:26;20.50;92.90
40964;DHT22;26693;51.168;4.138;2022-07-18T05:27:26;20.50;93.00
40964;DHT22;26693;51.168;4.138;2022-07-18T05:28:27;20.40;93.10
40964;DHT22;26693;51.168;4.138;2022-07-18T05:29:27;20.40;93.10
40964;DHT22;26693;51.168;4.138;2022-07-18T05:30:28;20.50;93.10
40964;DHT22;26693;51.168;4.138;2022-07-18T05:31:28;20.50;93.10
40964;DHT22;26693;51.168;4.138;2022-07-18T05:32:29;20.60;93.10
40964;DHT22;26693;51.168;4.138;2022-07-18T05:33:29;20.50;93.10
40964;DHT22;26693;51.168;4.138;2022-07-18T05:34:30;20.60;93.00
40964;DHT22;26693;51.168;4.138;2022-07-18T05:35:30;20.60;93.00
40964;DHT22;26693;51.168;4.138;2022-07-18T05:36:31;20.60;93.00
40964;DHT22;26693;51.168;4.138;2022-07-18T05:37:31;20.50;93.10
40964;DHT22;26693;51.168;4.138;2022-07-18T05:38:32;20.60;93.00
40964;DHT22;26693;51.168;4.138;2022-07-18T05:39:33;20.60;93.10
40964;DHT22;26693;51.168;4.138;2022-07-18T05:40:33;20.60;93.10
40964;DHT22;26693;51.168;4.138;2022-07-18T05:41:34;20.70;93.10
40964;DHT22;26693;51.168;4.138;2022-07-18T05:42:34;20.50;93.40
40964;DHT22;26693;51.168;4.138;2022-07-18T05:43:35;20.50;93.20
40964;DHT22;26693;51.168;4.138;2022-07-18T05:44:36;20.50;93.30
40964;DHT22;26693;51.168;4.138;2022-07-18T05:45:36;20.50;93.40
40964;DHT22;26693;51.168;4.138;2022-07-18T05:46:37;20.40;93.40
40964;DHT22;26693;51.168;4.138;2022-07-18T05:47:37;20.40;93.40
40964;DHT22;26693;51.168;4.138;2022-07-18T05:48:38;20.40;93.50
40964;DHT22;26693;51.168;4.138;2022-07-18T05:49:39;20.40;93.50
40964;DHT22;26693;51.168;4.138;2022-07-18T05:50:40;20.40;93.50
40964;DHT22;26693;51.168;4.138;2022-07-18T05:51:41;20.50;93.70
40964;DHT22;26693;51.168;4.138;2022-07-18T05:52:41;20.60;93.40
40964;DHT22;26693;51.168;4.138;2022-07-18T05:53:42;20.50;93.30
40964;DHT22;26693;51.168;4.138;2022-07-18T05:54:42;20.50;93.30
40964;DHT22;26693;51.168;4.138;2022-07-18T05:55:43;20.70;93.30
40964;DHT22;26693;51.168;4.138;2022-07-18T05:56:47;20.80;93.20
40964;DHT22;26693;51.168;4.138;2022-07-18T05:57:48;20.80;93.20
40964;DHT22;26693;51.168;4.138;2022-07-18T05:58:50;20.90;93.00
40964;DHT22;26693;51.168;4.138;2022-07-18T05:59:50;20.90;93.10
40964;DHT22;26693;51.168;4.138;2022-07-18T06:00:51;20.90;93.00
40964;DHT22;26693;51.168;4.138;2022-07-18T06:01:51;21.00;93.00
40964;DHT22;26693;51.168;4.138;2022-07-18T06:02:52;21.00;92.90
40964;DHT22;26693;51.168;4.138;2022-07-18T06:03:52;21.00;92.90
40964;DHT22;26693;51.168;4.138;2022-07-18T06:04:53;21.00;93.00
40964;DHT22;26693;51.168;4.138;2022-07-18T06:05:53;21.10;92.70
40964;DHT22;26693;51.168;4.138;2022-07-18T06:06:54;21.10;92.80
40964;DHT22;26693;51.168;4.138;2022-07-18T06:07:54;21.20;92.80
40964;DHT22;26693;51.168;4.138;2022-07-18T06:08:55;21.20;92.70
40964;DHT22;26693;51.168;4.138;2022-07-18T06:09:56;21.30;92.70
40964;DHT22;26693;51.168;4.138;2022-07-18T06:10:56;21.20;92.60
40964;DHT22;26693;51.168;4.138;2022-07-18T06:12:00;21.10;92.50
40964;DHT22;26693;51.168;4.138;2022-07-18T06:13:00;21.10;92.50
40964;DHT22;26693;51.168;4.138;2022-07-18T06:14:01;21.20;92.40
40964;DHT22;26693;51.168;4.138;2022-07-18T06:15:05;21.30;92.30
40964;DHT22;26693;51.168;4.138;2022-07-18T06:16:07;21.30;92.30
40964;DHT22;26693;51.168;4.138;2022-07-18T06:17:08;21.30;92.30
40964;DHT22;26693;51.168;4.138;2022-07-18T06:18:08;21.10;92.50
40964;DHT22;26693;51.168;4.138;2022-07-18T06:19:09;21.10;92.70
40964;DHT22;26693;51.168;4.138;2022-07-18T06:20:09;21.10;92.70
40964;DHT22;26693;51.168;4.138;2022-07-18T06:21:10;21.20;92.60
40964;DHT22;26693;51.168;4.138;2022-07-18T06:22:11;21.10;92.50
40964;DHT22;26693;51.168;4.138;2022-07-18T06:23:11;21.10;92.60
40964;DHT22;26693;51.168;4.138;2022-07-18T06:24:12;21.20;92.90